createdAt,value
2022-09-23T00:01:05.268Z,5.82
2022-09-23T00:03:33.347Z,5.03
2022-09-23T00:06:02.332Z,4.53
2022-09-23T00:08:33.616Z,5.63
2022-09-23T00:11:09.957Z,4.43
2022-09-23T00:13:38.644Z,4.35
2022-09-23T00:16:11.767Z,4.93
2022-09-23T00:18:38.874Z,5.20
2022-09-23T00:21:09.999Z,5.32
2022-09-23T00:23:40.570Z,5.47
2022-09-23T00:26:09.496Z,5.25
2022-09-23T00:28:36.639Z,5.13
2022-09-23T00:31:05.011Z,4.63
2022-09-23T00:33:31.987Z,5.40
2022-09-23T00:36:00.446Z,5.53
2022-09-23T00:38:27.555Z,5.22
2022-09-23T00:40:54.289Z,5.68
2022-09-23T00:43:36.655Z,6.50
2022-09-23T00:48:30.973Z,5.75
2022-09-23T00:50:57.931Z,6.65
2022-09-23T00:53:26.756Z,5.65
2022-09-23T00:56:02.983Z,6.55
2022-09-23T00:58:33.115Z,6.43
2022-09-23T01:01:01.435Z,6.13
2022-09-23T01:03:28.372Z,5.75
2022-09-23T01:05:55.887Z,5.35
2022-09-23T01:08:24.524Z,5.93
2022-09-23T01:11:06.417Z,6.28
2022-09-23T01:13:57.345Z,6.13
2022-09-23T01:16:48.907Z,6.47
2022-09-23T01:19:27.925Z,6.83
2022-09-23T01:22:09.156Z,6.53
2022-09-23T01:24:53.822Z,6.03
2022-09-23T01:27:39.065Z,6.15
2022-09-23T01:30:09.116Z,5.70
2022-09-23T01:32:52.865Z,6.60
2022-09-23T01:35:35.315Z,5.97
2022-09-23T01:38:25.876Z,6.28
2022-09-23T01:41:12.485Z,6.55
2022-09-23T01:43:58.088Z,6.38
2022-09-23T01:46:30.788Z,6.00
2022-09-23T01:49:18.971Z,5.30
2022-09-23T01:51:56.491Z,5.82
2022-09-23T01:54:31.570Z,6.32
2022-09-23T01:57:04.407Z,5.97
2022-09-23T01:59:36.421Z,5.25
2022-09-23T02:02:22.010Z,6.10
2022-09-23T02:05:08.036Z,5.22
2022-09-23T02:08:11.497Z,4.47
2022-09-23T02:10:47.090Z,5.13
2022-09-23T02:13:20.637Z,6.40
2022-09-23T02:15:52.510Z,5.68
2022-09-23T02:18:47.525Z,5.95
2022-09-23T02:21:16.664Z,6.45
2022-09-23T02:23:58.410Z,6.82
2022-09-23T02:26:51.526Z,7.28
2022-09-23T02:29:29.462Z,6.03
2022-09-23T02:32:24.145Z,6.65
2022-09-23T02:35:09.108Z,6.03
2022-09-23T02:38:09.864Z,5.90
2022-09-23T02:40:58.746Z,5.65
2022-09-23T02:43:35.534Z,5.70
2022-09-23T02:46:06.395Z,6.70
2022-09-23T02:48:44.487Z,5.97
2022-09-23T02:51:11.216Z,5.35
2022-09-23T02:53:38.867Z,5.68
2022-09-23T02:56:21.901Z,5.40
2022-09-23T02:58:51.881Z,6.43
2022-09-23T03:01:21.993Z,5.88
2022-09-23T03:04:07.325Z,5.47
2022-09-23T03:06:44.319Z,6.15
2022-09-23T03:09:15.364Z,5.93
2022-09-23T03:11:45.857Z,5.78
2022-09-23T03:14:22.634Z,5.63
2022-09-23T03:17:07.153Z,6.18
2022-09-23T03:19:47.242Z,6.30
2022-09-23T03:22:42.549Z,6.55
2022-09-23T03:25:19.695Z,6.65
2022-09-23T03:27:46.432Z,6.85
2022-09-23T03:30:14.085Z,6.53
2022-09-23T03:32:45.301Z,6.85
2022-09-23T03:35:12.938Z,8.20
2022-09-23T03:37:49.415Z,6.93
2022-09-23T03:40:22.124Z,6.90
2022-09-23T03:42:49.127Z,7.00
2022-09-23T03:45:20.369Z,7.07
2022-09-23T03:47:47.823Z,7.95
2022-09-23T03:50:17.262Z,7.80
2022-09-23T03:52:44.875Z,8.88
2022-09-23T03:55:11.896Z,7.20
2022-09-23T03:57:38.876Z,8.45
2022-09-23T04:00:07.437Z,6.32
2022-09-23T04:02:34.462Z,6.68
2022-09-23T04:05:01.361Z,7.80
2022-09-23T04:07:28.268Z,7.93
2022-09-23T04:09:55.857Z,7.53
2022-09-23T04:12:22.988Z,7.93
2022-09-23T04:14:49.781Z,7.55
2022-09-23T04:17:16.796Z,7.45
2022-09-23T04:19:45.051Z,7.72
2022-09-23T04:22:11.990Z,7.22
2022-09-23T04:24:38.776Z,6.22
2022-09-23T04:27:05.991Z,6.65
2022-09-23T04:29:32.791Z,6.97
2022-09-23T04:31:59.645Z,7.28
2022-09-23T04:34:26.528Z,6.50
2022-09-23T04:36:53.461Z,6.55
2022-09-23T04:39:20.227Z,6.10
2022-09-23T04:41:47.474Z,5.72
2022-09-23T04:44:15.036Z,6.70
2022-09-23T04:46:43.735Z,7.32
2022-09-23T04:49:10.785Z,7.18
2022-09-23T04:51:37.631Z,6.88
2022-09-23T04:54:04.603Z,7.05
2022-09-23T04:56:34.367Z,6.85
2022-09-23T04:59:04.218Z,7.20
2022-09-23T05:01:34.433Z,6.45
2022-09-23T05:04:05.303Z,7.15
2022-09-23T05:06:36.376Z,7.30
2022-09-23T05:09:06.216Z,6.45
2022-09-23T05:11:33.639Z,6.40
2022-09-23T05:14:00.690Z,6.85
2022-09-23T05:16:27.775Z,7.18
2022-09-23T05:18:54.911Z,7.22
2022-09-23T05:21:23.636Z,7.38
2022-09-23T05:23:56.646Z,7.25
2022-09-23T05:26:25.581Z,7.07
2022-09-23T05:28:53.899Z,6.55
2022-09-23T05:31:22.705Z,7.93
2022-09-23T05:33:55.674Z,7.78
2022-09-23T05:36:23.596Z,7.68
2022-09-23T05:38:51.362Z,7.10
2022-09-23T05:41:19.832Z,7.10
2022-09-23T05:43:47.449Z,7.13
2022-09-23T05:46:19.636Z,7.55
2022-09-23T05:51:16.259Z,7.20
2022-09-23T05:53:46.220Z,7.78
2022-09-23T05:56:17.901Z,7.50
2022-09-23T05:58:45.277Z,5.60
2022-09-23T06:01:25.085Z,8.10
2022-09-23T06:03:52.971Z,7.55
2022-09-23T06:06:26.106Z,7.63
2022-09-23T06:08:52.871Z,7.88
2022-09-23T06:11:21.602Z,8.23
2022-09-23T06:13:49.408Z,10.15
2022-09-23T06:16:16.719Z,11.15
2022-09-23T06:18:45.710Z,11.35
2022-09-23T06:21:15.030Z,11.95
2022-09-23T06:23:42.558Z,11.10
2022-09-23T06:26:11.867Z,12.95
2022-09-23T06:28:40.623Z,11.15
2022-09-23T06:31:14.024Z,12.27
2022-09-23T06:33:42.694Z,18.77
2022-09-23T06:36:09.760Z,15.90
2022-09-23T06:38:40.095Z,12.13
2022-09-23T06:41:07.218Z,11.20
2022-09-23T06:43:34.034Z,10.07
2022-09-23T06:46:04.014Z,10.30
2022-09-23T06:48:35.451Z,9.48
2022-09-23T06:51:04.986Z,9.27
2022-09-23T06:53:32.300Z,10.40
2022-09-23T06:56:07.332Z,10.13
2022-09-23T06:58:36.000Z,10.65
2022-09-23T07:01:10.751Z,10.30
2022-09-23T07:03:38.863Z,11.88
2022-09-23T07:06:06.842Z,12.77
2022-09-23T07:08:35.053Z,15.65
2022-09-23T07:11:04.832Z,13.75
2022-09-23T07:13:33.472Z,11.63
2022-09-23T07:16:02.067Z,15.38
2022-09-23T07:18:36.656Z,10.95
2022-09-23T07:21:08.437Z,10.60
2022-09-23T07:23:35.259Z,11.20
2022-09-23T07:26:02.082Z,9.60
2022-09-23T07:28:29.219Z,10.43
2022-09-23T07:31:00.397Z,12.90
2022-09-23T07:33:32.963Z,10.05
2022-09-23T07:36:08.306Z,11.52
2022-09-23T07:38:37.952Z,11.40
2022-09-23T07:41:09.551Z,9.98
2022-09-23T07:43:37.173Z,10.57
2022-09-23T07:46:14.412Z,10.40
2022-09-23T07:48:41.321Z,9.60
2022-09-23T07:51:18.732Z,10.75
2022-09-23T07:53:48.517Z,9.48
2022-09-23T07:56:16.409Z,9.15
2022-09-23T07:58:43.261Z,9.02
2022-09-23T08:01:12.227Z,9.35
2022-09-23T08:03:39.686Z,9.52
2022-09-23T08:06:08.464Z,8.10
2022-09-23T08:08:36.263Z,8.48
2022-09-23T08:11:05.166Z,7.90
2022-09-23T08:13:32.653Z,7.78
2022-09-23T08:15:59.973Z,7.35
2022-09-23T08:18:27.049Z,7.72
2022-09-23T08:20:53.951Z,7.70
2022-09-23T08:23:21.098Z,7.85
2022-09-23T08:25:48.238Z,6.88
2022-09-23T08:28:19.208Z,6.72
2022-09-23T08:30:48.932Z,7.15
2022-09-23T08:33:20.981Z,6.75
2022-09-23T08:35:49.770Z,6.32
2022-09-23T08:38:16.574Z,6.32
2022-09-23T08:40:46.352Z,6.15
2022-09-23T08:43:34.231Z,6.45
2022-09-23T08:46:04.634Z,6.35
2022-09-23T08:48:36.845Z,6.35
2022-09-23T08:53:36.919Z,5.32
2022-09-23T08:56:19.293Z,5.72
2022-09-23T08:59:01.129Z,5.43
2022-09-23T09:01:57.941Z,5.90
2022-09-23T09:04:32.987Z,5.07
2022-09-23T09:07:38.682Z,5.43
2022-09-23T09:10:06.274Z,6.18
2022-09-23T09:12:42.134Z,5.57
2022-09-23T09:15:14.976Z,5.38
2022-09-23T09:17:48.727Z,5.15
2022-09-23T09:20:17.249Z,5.28
2022-09-23T09:22:54.448Z,5.95
2022-09-23T09:25:44.761Z,6.32
2022-09-23T09:28:23.243Z,5.38
2022-09-23T09:31:05.731Z,5.43
2022-09-23T09:33:52.726Z,5.47
2022-09-23T09:36:23.803Z,5.18
2022-09-23T09:38:51.292Z,5.97
2022-09-23T09:41:21.446Z,5.88
2022-09-23T09:43:57.748Z,5.82
2022-09-23T09:46:45.218Z,5.50
2022-09-23T09:49:28.527Z,5.60
2022-09-23T09:52:26.346Z,4.82
2022-09-23T09:54:53.442Z,5.15
2022-09-23T09:57:33.525Z,4.45
2022-09-23T10:00:21.508Z,5.18
2022-09-23T10:03:09.179Z,5.43
2022-09-23T10:05:45.100Z,4.43
2022-09-23T10:08:36.407Z,4.28
2022-09-23T10:11:17.027Z,3.45
2022-09-23T10:14:05.759Z,4.47
2022-09-23T10:16:34.478Z,3.65
2022-09-23T10:19:03.382Z,3.72
2022-09-23T10:21:36.611Z,3.63
2022-09-23T10:24:06.430Z,3.45
2022-09-23T10:26:41.183Z,3.80
2022-09-23T10:29:37.039Z,3.28
2022-09-23T10:32:19.813Z,3.20
2022-09-23T10:34:51.874Z,3.30
2022-09-23T10:37:27.765Z,3.15
2022-09-23T10:40:13.203Z,3.28
2022-09-23T10:43:01.601Z,3.60
2022-09-23T10:45:52.436Z,3.10
2022-09-23T10:48:35.892Z,3.13
2022-09-23T10:51:14.404Z,3.22
2022-09-23T10:54:10.650Z,3.40
2022-09-23T10:56:42.963Z,3.75
2022-09-23T10:59:30.622Z,3.00
2022-09-23T11:02:31.278Z,3.28
2022-09-23T11:05:19.654Z,3.00
2022-09-23T11:07:56.932Z,3.33
2022-09-23T11:10:50.312Z,3.60
2022-09-23T11:13:54.513Z,2.67
2022-09-23T11:17:00.952Z,3.22
2022-09-23T11:19:49.570Z,2.53
2022-09-23T11:22:37.510Z,3.05
2022-09-23T11:25:14.113Z,2.50
2022-09-23T11:28:08.895Z,3.10
2022-09-23T11:31:05.610Z,2.70
2022-09-23T11:34:02.642Z,3.03
2022-09-23T11:36:44.535Z,3.38
2022-09-23T11:39:20.245Z,3.28
2022-09-23T11:41:49.968Z,2.65
2022-09-23T11:44:35.644Z,2.88
2022-09-23T11:47:08.107Z,2.92
2022-09-23T11:49:40.203Z,3.58
2022-09-23T11:52:22.157Z,3.80
2022-09-23T11:57:53.889Z,2.83
2022-09-23T12:00:34.182Z,4.75
2022-09-23T12:03:23.227Z,3.00
2022-09-23T12:06:09.212Z,3.72
2022-09-23T12:08:37.287Z,2.40
2022-09-23T12:11:25.445Z,2.95
2022-09-23T12:14:08.648Z,2.38
2022-09-23T12:16:58.177Z,2.70
2022-09-23T12:19:55.568Z,2.45
2022-09-23T12:22:34.351Z,2.53
2022-09-23T12:25:33.560Z,2.42
2022-09-23T12:28:10.439Z,2.53
2022-09-23T12:30:39.656Z,2.42
2022-09-23T12:33:16.426Z,2.50
2022-09-23T12:35:45.845Z,3.35
2022-09-23T12:38:25.341Z,2.42
2022-09-23T12:40:54.997Z,2.40
2022-09-23T12:43:33.045Z,2.85
2022-09-23T12:46:27.263Z,2.03
2022-09-23T12:48:57.351Z,2.28
2022-09-23T12:51:25.777Z,2.50
2022-09-23T12:53:57.296Z,3.78
2022-09-23T12:56:26.825Z,3.20
2022-09-23T12:58:53.524Z,2.50
2022-09-23T13:01:23.074Z,2.47
2022-09-23T13:04:13.561Z,2.65
2022-09-23T13:07:08.467Z,2.75
2022-09-23T13:09:42.659Z,2.45
2022-09-23T13:12:24.494Z,2.38
2022-09-23T13:17:36.118Z,7.15
2022-09-23T13:20:20.765Z,4.35
2022-09-23T13:22:53.262Z,3.60
2022-09-23T13:25:24.504Z,3.33
2022-09-23T13:27:59.036Z,3.85
2022-09-23T13:30:26.991Z,3.00
2022-09-23T13:33:04.500Z,2.92
2022-09-23T13:35:37.091Z,2.45
2022-09-23T13:38:26.194Z,2.65
2022-09-23T13:40:57.783Z,2.30
2022-09-23T13:43:52.275Z,2.47
2022-09-23T13:46:25.290Z,2.30
2022-09-23T13:48:56.884Z,2.33
2022-09-23T13:51:32.617Z,2.65
2022-09-23T13:54:01.623Z,2.72
2022-09-23T13:56:31.061Z,2.95
2022-09-23T13:59:25.838Z,2.60
2022-09-23T14:02:06.079Z,2.75
2022-09-23T14:04:32.854Z,2.67
2022-09-23T14:06:59.823Z,3.08
2022-09-23T14:09:30.372Z,2.70
2022-09-23T14:11:59.405Z,1.67
2022-09-23T14:14:27.882Z,2.20
2022-09-23T14:16:56.102Z,2.10
2022-09-23T14:19:25.527Z,2.40
2022-09-23T14:21:54.089Z,2.28
2022-09-23T14:24:29.014Z,2.22
2022-09-23T14:27:15.687Z,1.90
2022-09-23T14:29:47.689Z,2.28
2022-09-23T14:32:24.791Z,2.20
2022-09-23T14:34:51.517Z,1.88
2022-09-23T14:38:09.068Z,2.40
2022-09-23T14:40:49.270Z,2.40
2022-09-23T14:43:27.997Z,2.05
2022-09-23T14:45:57.480Z,1.73
2022-09-23T14:48:26.153Z,2.15
2022-09-23T14:50:58.579Z,1.80
2022-09-23T14:53:46.431Z,2.00
2022-09-23T14:56:17.711Z,2.25
2022-09-23T14:58:53.163Z,2.00
2022-09-23T15:01:35.167Z,3.13
2022-09-23T15:06:28.922Z,2.13
2022-09-23T15:08:56.263Z,2.00
2022-09-23T15:11:23.160Z,2.25
2022-09-23T15:13:52.815Z,1.90
2022-09-23T15:16:27.939Z,2.08
2022-09-23T15:18:57.710Z,1.80
2022-09-23T15:21:25.893Z,1.92
2022-09-23T15:23:58.711Z,2.58
2022-09-23T15:26:48.137Z,2.08
2022-09-23T15:29:15.026Z,2.00
2022-09-23T15:31:41.926Z,2.13
2022-09-23T15:34:10.895Z,1.42
2022-09-23T15:36:38.645Z,2.20
2022-09-23T15:39:08.720Z,2.15
2022-09-23T15:41:35.543Z,1.80
2022-09-23T15:44:11.732Z,2.20
2022-09-23T15:46:40.530Z,1.90
2022-09-23T15:49:27.774Z,1.60
2022-09-23T15:51:58.328Z,2.35
2022-09-23T15:54:25.224Z,1.38
2022-09-23T15:56:52.044Z,1.58
2022-09-23T15:59:19.254Z,1.75
2022-09-23T16:01:46.655Z,1.75
2022-09-23T16:04:16.656Z,1.77
2022-09-23T16:06:48.390Z,1.90
2022-09-23T16:09:18.732Z,1.60
2022-09-23T16:11:47.965Z,1.90
2022-09-23T16:14:17.071Z,2.33
2022-09-23T16:16:45.411Z,2.80
2022-09-23T16:19:12.401Z,2.63
2022-09-23T16:21:40.990Z,2.38
2022-09-23T16:24:18.494Z,2.92
2022-09-23T16:26:47.182Z,2.50
2022-09-23T16:29:14.079Z,2.50
2022-09-23T16:31:41.066Z,2.38
2022-09-23T16:34:08.009Z,2.78
2022-09-23T16:36:40.648Z,2.95
2022-09-23T16:39:12.531Z,2.38
2022-09-23T16:44:09.359Z,2.30
2022-09-23T16:46:36.464Z,2.28
2022-09-23T16:49:03.409Z,2.83
2022-09-23T16:51:38.066Z,2.53
2022-09-23T16:54:11.395Z,3.00
2022-09-23T16:56:43.941Z,2.42
2022-09-23T16:59:12.768Z,2.67
2022-09-23T17:01:58.304Z,2.55
2022-09-23T17:04:25.209Z,2.03
2022-09-23T17:06:52.900Z,2.38
2022-09-23T17:09:21.972Z,2.42
2022-09-23T17:11:58.758Z,2.20
2022-09-23T17:14:25.737Z,2.55
2022-09-23T17:16:52.628Z,2.38
2022-09-23T17:19:19.404Z,2.83
2022-09-23T17:21:46.559Z,3.53
2022-09-23T17:24:13.498Z,4.63
2022-09-23T17:26:40.270Z,4.07
2022-09-23T17:29:07.696Z,3.72
2022-09-23T17:31:35.103Z,4.25
2022-09-23T17:34:02.004Z,5.03
2022-09-23T17:36:28.760Z,4.38
2022-09-23T17:38:56.165Z,4.53
2022-09-23T17:41:25.943Z,4.60
2022-09-23T17:44:00.494Z,4.40
2022-09-23T17:46:28.896Z,3.92
2022-09-23T17:48:56.359Z,4.45
2022-09-23T17:51:24.349Z,4.20
2022-09-23T17:53:51.378Z,4.32
2022-09-23T17:56:18.241Z,4.28
2022-09-23T17:58:46.520Z,4.10
2022-09-23T18:01:19.456Z,4.28
2022-09-23T18:03:47.427Z,4.70
2022-09-23T18:06:19.930Z,4.80
2022-09-23T18:08:49.617Z,5.03
2022-09-23T18:11:30.161Z,4.07
2022-09-23T18:14:01.764Z,4.80
2022-09-23T18:16:30.954Z,4.45
2022-09-23T18:19:00.414Z,5.40
2022-09-23T18:21:33.071Z,4.47
2022-09-23T18:26:49.691Z,5.70
2022-09-23T18:29:17.254Z,6.13
2022-09-23T18:31:45.183Z,7.50
2022-09-23T18:34:18.588Z,8.25
2022-09-23T18:36:45.465Z,8.13
2022-09-23T18:39:12.654Z,8.40
2022-09-23T18:41:39.423Z,8.50
2022-09-23T18:44:06.337Z,9.15
2022-09-23T18:46:33.390Z,9.13
2022-09-23T18:49:18.656Z,9.73
2022-09-23T18:51:51.092Z,10.35
2022-09-23T18:54:19.361Z,10.07
2022-09-23T18:56:46.999Z,9.23
2022-09-23T18:59:25.307Z,10.88
2022-09-23T19:01:55.008Z,11.85
2022-09-23T19:04:23.505Z,13.88
2022-09-23T19:06:50.675Z,15.48
2022-09-23T19:09:18.463Z,15.68
2022-09-23T19:11:45.641Z,15.05
2022-09-23T19:14:13.112Z,11.40
2022-09-23T19:16:41.886Z,10.63
2022-09-23T19:19:09.274Z,10.82
2022-09-23T19:21:37.159Z,8.88
2022-09-23T19:24:07.722Z,8.85
2022-09-23T19:26:40.779Z,8.32
2022-09-23T19:29:12.931Z,8.52
2022-09-23T19:31:41.279Z,8.43
2022-09-23T19:34:16.704Z,9.30
2022-09-23T19:36:48.388Z,9.02
2022-09-23T19:39:22.699Z,8.65
2022-09-23T19:41:50.800Z,10.48
2022-09-23T19:44:17.907Z,9.80
2022-09-23T19:46:46.261Z,8.77
2022-09-23T19:49:13.364Z,8.77
2022-09-23T19:51:40.674Z,9.98
2022-09-23T19:54:08.211Z,8.10
2022-09-23T19:56:35.767Z,7.70
2022-09-23T19:59:04.590Z,9.68
2022-09-23T20:01:32.049Z,10.07
2022-09-23T20:04:08.584Z,11.18
2022-09-23T20:06:40.805Z,11.00
2022-09-23T20:09:07.534Z,11.40
2022-09-23T20:11:34.571Z,10.20
2022-09-23T20:14:03.973Z,9.80
2022-09-23T20:16:33.293Z,9.82
2022-09-23T20:19:01.412Z,8.85
2022-09-23T20:21:29.570Z,8.63
2022-09-23T20:23:57.372Z,7.97
2022-09-23T20:26:42.609Z,8.18
2022-09-23T20:29:10.795Z,8.65
2022-09-23T20:31:41.313Z,8.25
2022-09-23T20:34:10.367Z,8.18
2022-09-23T20:36:37.647Z,8.32
2022-09-23T20:39:09.579Z,7.85
2022-09-23T20:41:38.354Z,8.38
2022-09-23T20:44:12.806Z,8.82
2022-09-23T20:46:44.132Z,9.63
2022-09-23T20:49:15.229Z,9.18
2022-09-23T20:51:41.998Z,8.77
2022-09-23T20:54:08.923Z,8.55
2022-09-23T20:56:35.756Z,8.68
2022-09-23T20:59:04.163Z,10.13
2022-09-23T21:01:36.512Z,8.73
2022-09-23T21:04:05.707Z,8.35
2022-09-23T21:06:36.925Z,9.02
2022-09-23T21:09:05.293Z,8.23
2022-09-23T21:11:32.433Z,8.02
2022-09-23T21:14:01.156Z,9.07
2022-09-23T21:16:29.046Z,8.82
2022-09-23T21:18:56.066Z,8.50
2022-09-23T21:21:22.874Z,10.25
2022-09-23T21:23:50.548Z,8.48
2022-09-23T21:26:23.159Z,8.98
2022-09-23T21:28:51.768Z,8.57
2022-09-23T21:31:25.889Z,8.95
2022-09-23T21:33:52.946Z,8.13
2022-09-23T21:36:19.755Z,9.07
2022-09-23T21:38:46.570Z,10.77
2022-09-23T21:41:13.721Z,9.82
2022-09-23T21:43:40.869Z,9.98
2022-09-23T21:46:11.311Z,10.20
2022-09-23T21:48:41.367Z,9.15
2022-09-23T21:51:29.550Z,9.52
2022-09-23T21:53:57.895Z,9.30
2022-09-23T21:56:27.849Z,9.23
2022-09-23T21:58:56.021Z,9.68
2022-09-23T22:01:25.884Z,9.43
2022-09-23T22:03:58.147Z,8.75
2022-09-23T22:06:27.391Z,9.10
2022-09-23T22:08:59.186Z,9.23
2022-09-23T22:11:46.808Z,8.73
2022-09-23T22:14:14.927Z,8.18
2022-09-23T22:16:42.448Z,8.55
2022-09-23T22:19:10.609Z,7.97
2022-09-23T22:21:38.956Z,9.30
2022-09-23T22:24:09.414Z,8.88
2022-09-23T22:26:38.840Z,8.80
2022-09-23T22:29:25.619Z,8.52
2022-09-23T22:32:11.321Z,8.50
2022-09-23T22:34:49.660Z,8.40
2022-09-23T22:37:20.434Z,7.93
2022-09-23T22:39:47.533Z,8.63
2022-09-23T22:42:14.509Z,8.82
2022-09-23T22:44:41.332Z,8.07
2022-09-23T22:47:10.562Z,9.23
2022-09-23T22:49:37.334Z,10.35
2022-09-23T22:52:07.879Z,11.48
2022-09-23T22:54:35.593Z,11.55
2022-09-23T22:57:06.881Z,10.65
2022-09-23T22:59:34.302Z,10.68
2022-09-23T23:02:03.008Z,12.15
2022-09-23T23:04:30.982Z,10.70
2022-09-23T23:06:58.721Z,11.57
2022-09-23T23:09:25.576Z,10.30
2022-09-23T23:11:52.303Z,10.68
2022-09-23T23:14:19.376Z,9.00
2022-09-23T23:16:46.743Z,9.60
2022-09-23T23:19:17.107Z,10.00
2022-09-23T23:21:45.513Z,9.70
2022-09-23T23:24:30.758Z,9.45
2022-09-23T23:26:57.513Z,9.20
2022-09-23T23:29:24.269Z,10.18
2022-09-23T23:31:51.422Z,9.52
2022-09-23T23:34:20.710Z,8.95
2022-09-23T23:36:53.454Z,8.70
2022-09-23T23:39:23.550Z,9.65
2022-09-23T23:41:55.361Z,8.45
2022-09-23T23:44:23.834Z,9.60
2022-09-23T23:46:50.792Z,10.25
2022-09-23T23:49:17.564Z,9.98
2022-09-23T23:51:44.500Z,9.88
2022-09-23T23:54:11.926Z,8.98
2022-09-23T23:56:41.385Z,10.70
2022-09-23T23:59:08.181Z,9.40
